createdAt,value
2022-11-10T00:02:13.696Z,5.00
2022-11-10T00:04:59.335Z,2.70
2022-11-10T00:07:44.517Z,4.83
2022-11-10T00:10:30.628Z,2.73
2022-11-10T00:13:15.659Z,4.63
2022-11-10T00:16:22.145Z,2.80
2022-11-10T00:19:07.500Z,2.87
2022-11-10T00:21:53.070Z,2.00
2022-11-10T00:24:38.480Z,2.07
2022-11-10T00:27:23.956Z,5.03
2022-11-10T00:30:09.657Z,3.03
2022-11-10T00:32:54.720Z,3.40
2022-11-10T00:35:40.026Z,3.77
2022-11-10T00:38:25.448Z,3.60
2022-11-10T00:41:10.903Z,2.60
2022-11-10T00:43:56.160Z,5.63
2022-11-10T00:46:41.604Z,3.23
2022-11-10T00:49:27.370Z,3.50
2022-11-10T00:52:12.593Z,3.13
2022-11-10T00:54:58.176Z,4.10
2022-11-10T00:57:43.334Z,4.30
2022-11-10T01:00:28.777Z,4.93
2022-11-10T01:03:16.105Z,4.43
2022-11-10T01:06:10.946Z,2.30
2022-11-10T01:08:55.976Z,4.13
2022-11-10T01:11:41.614Z,4.07
2022-11-10T01:14:26.584Z,4.87
2022-11-10T01:17:12.080Z,4.43
2022-11-10T01:19:57.364Z,2.97
2022-11-10T01:22:43.016Z,6.33
2022-11-10T01:25:28.343Z,4.87
2022-11-10T01:28:13.788Z,4.53
2022-11-10T01:31:06.025Z,4.43
2022-11-10T01:33:51.881Z,5.07
2022-11-10T01:36:37.337Z,4.07
2022-11-10T01:39:22.738Z,4.10
2022-11-10T01:42:08.136Z,3.00
2022-11-10T01:45:24.445Z,4.37
2022-11-10T01:48:14.569Z,4.20
2022-11-10T01:51:12.189Z,2.57
2022-11-10T01:54:01.606Z,2.80
2022-11-10T01:56:51.646Z,5.57
2022-11-10T01:59:42.660Z,5.13
2022-11-10T02:02:49.605Z,7.17
2022-11-10T02:05:36.148Z,4.03
2022-11-10T02:08:22.156Z,4.20
2022-11-10T02:11:07.550Z,3.13
2022-11-10T02:13:53.964Z,6.67
2022-11-10T02:16:39.913Z,3.97
2022-11-10T02:19:26.317Z,5.33
2022-11-10T02:22:11.382Z,4.00
2022-11-10T02:24:57.460Z,4.00
2022-11-10T02:27:42.828Z,4.57
2022-11-10T02:30:28.308Z,6.67
2022-11-10T02:33:13.695Z,3.43
2022-11-10T02:35:59.250Z,4.53
2022-11-10T02:38:44.759Z,3.77
2022-11-10T02:41:30.165Z,5.93
2022-11-10T02:44:15.584Z,5.30
2022-11-10T02:47:00.865Z,4.93
2022-11-10T02:49:46.338Z,5.97
2022-11-10T02:52:31.863Z,6.80
2022-11-10T02:55:17.471Z,3.70
2022-11-10T02:58:03.542Z,4.80
2022-11-10T03:00:48.954Z,5.00
2022-11-10T03:03:34.189Z,4.83
2022-11-10T03:06:19.485Z,3.03
2022-11-10T03:09:05.076Z,3.43
2022-11-10T03:11:50.470Z,6.43
2022-11-10T03:14:35.856Z,5.43
2022-11-10T03:17:21.260Z,3.40
2022-11-10T03:20:07.183Z,4.90
2022-11-10T03:22:52.955Z,3.30
2022-11-10T03:25:38.539Z,5.73
2022-11-10T03:28:24.520Z,6.17
2022-11-10T03:31:09.669Z,3.17
2022-11-10T03:33:55.193Z,4.30
2022-11-10T03:36:40.721Z,8.67
2022-11-10T03:39:25.930Z,4.77
2022-11-10T03:42:11.411Z,4.33
2022-11-10T03:44:56.687Z,3.20
2022-11-10T03:47:46.550Z,5.20
2022-11-10T03:50:31.721Z,3.63
2022-11-10T03:53:18.089Z,7.43
2022-11-10T03:56:05.182Z,4.90
2022-11-10T03:58:50.605Z,5.60
2022-11-10T04:01:36.063Z,4.83
2022-11-10T04:04:40.732Z,6.13
2022-11-10T04:07:44.771Z,3.97
2022-11-10T04:10:30.277Z,4.17
2022-11-10T04:13:33.991Z,5.63
2022-11-10T04:16:19.519Z,4.40
2022-11-10T04:19:05.018Z,5.23
2022-11-10T04:21:50.676Z,6.10
2022-11-10T04:24:35.907Z,7.33
2022-11-10T04:27:21.197Z,5.27
2022-11-10T04:30:06.950Z,6.10
2022-11-10T04:32:53.891Z,6.07
2022-11-10T04:35:39.389Z,4.27
2022-11-10T04:38:24.906Z,5.83
2022-11-10T04:41:11.317Z,6.17
2022-11-10T04:43:57.866Z,4.63
2022-11-10T04:46:44.104Z,4.40
2022-11-10T04:49:29.457Z,5.40
2022-11-10T04:52:14.456Z,6.60
2022-11-10T04:55:00.915Z,3.70
2022-11-10T04:57:47.043Z,5.37
2022-11-10T05:00:35.276Z,3.93
2022-11-10T05:03:21.832Z,6.90
2022-11-10T05:06:10.269Z,4.20
2022-11-10T05:08:55.422Z,6.13
2022-11-10T05:11:41.165Z,7.30
2022-11-10T05:14:26.265Z,5.20
2022-11-10T05:17:11.648Z,5.27
2022-11-10T05:19:57.032Z,8.33
2022-11-10T05:22:49.050Z,6.37
2022-11-10T05:25:36.369Z,7.57
2022-11-10T05:28:21.635Z,6.40
2022-11-10T05:31:07.720Z,7.07
2022-11-10T05:33:53.127Z,4.63
2022-11-10T05:36:38.584Z,5.40
2022-11-10T05:39:23.944Z,4.53
2022-11-10T05:42:09.356Z,4.17
2022-11-10T05:44:54.780Z,5.23
2022-11-10T05:47:40.421Z,4.80
2022-11-10T05:50:25.914Z,4.47
2022-11-10T05:53:11.563Z,7.63
2022-11-10T05:55:56.755Z,6.63
2022-11-10T05:58:42.200Z,5.83
2022-11-10T06:01:27.455Z,5.43
2022-11-10T06:04:12.657Z,5.57
2022-11-10T06:06:58.051Z,4.70
2022-11-10T06:09:43.431Z,4.73
2022-11-10T06:12:30.220Z,7.33
2022-11-10T06:15:16.164Z,2.90
2022-11-10T06:18:02.072Z,4.23
2022-11-10T06:20:48.009Z,3.73
2022-11-10T06:23:33.117Z,4.27
2022-11-10T06:26:18.733Z,5.00
2022-11-10T06:29:04.327Z,5.30
2022-11-10T06:31:49.736Z,4.80
2022-11-10T06:34:35.080Z,4.00
2022-11-10T06:37:20.467Z,7.23
2022-11-10T06:40:07.691Z,5.63
2022-11-10T06:42:53.893Z,4.77
2022-11-10T06:45:39.281Z,4.13
2022-11-10T06:48:24.641Z,7.80
2022-11-10T06:51:10.149Z,5.50
2022-11-10T06:53:55.635Z,4.50
2022-11-10T06:56:41.117Z,6.20
2022-11-10T06:59:26.367Z,8.07
2022-11-10T07:02:15.693Z,4.90
2022-11-10T07:05:00.825Z,6.07
2022-11-10T07:07:46.314Z,6.10
2022-11-10T07:10:32.364Z,3.40
2022-11-10T07:13:17.608Z,3.93
2022-11-10T07:16:08.232Z,4.23
2022-11-10T07:18:53.592Z,5.60
2022-11-10T07:21:39.018Z,4.87
2022-11-10T07:24:24.386Z,4.60
2022-11-10T07:27:09.781Z,4.57
2022-11-10T07:29:54.820Z,6.40
2022-11-10T07:32:40.364Z,5.20
2022-11-10T07:35:28.268Z,5.93
2022-11-10T07:38:14.751Z,5.50
2022-11-10T07:40:59.882Z,4.50
2022-11-10T07:43:45.166Z,4.87
2022-11-10T07:46:30.629Z,4.60
2022-11-10T07:49:15.943Z,4.87
2022-11-10T07:52:01.579Z,5.20
2022-11-10T07:54:46.677Z,5.10
2022-11-10T07:57:33.078Z,4.93
2022-11-10T08:00:18.853Z,4.20
2022-11-10T08:03:05.133Z,4.73
2022-11-10T08:05:50.269Z,5.40
2022-11-10T08:08:36.753Z,4.83
2022-11-10T08:11:22.097Z,4.27
2022-11-10T08:14:07.587Z,4.57
2022-11-10T08:16:52.959Z,4.17
2022-11-10T08:19:38.207Z,4.57
2022-11-10T08:22:23.480Z,2.90
2022-11-10T08:25:09.052Z,5.67
2022-11-10T08:28:02.821Z,5.53
2022-11-10T08:30:49.461Z,5.90
2022-11-10T08:33:34.871Z,5.67
2022-11-10T08:36:20.482Z,4.37
2022-11-10T08:39:06.326Z,7.13
2022-11-10T08:41:51.695Z,3.53
2022-11-10T08:44:37.157Z,6.33
2022-11-10T08:47:22.777Z,5.87
2022-11-10T08:50:08.656Z,6.43
2022-11-10T08:52:54.485Z,5.00
2022-11-10T08:55:40.542Z,4.07
2022-11-10T08:58:26.162Z,4.88
2022-11-10T09:01:12.075Z,5.78
2022-11-10T09:03:57.422Z,3.63
2022-11-10T09:06:42.859Z,7.70
2022-11-10T09:09:28.269Z,8.63
2022-11-10T09:12:13.584Z,3.72
2022-11-10T09:14:58.827Z,3.75
2022-11-10T09:17:45.273Z,5.13
2022-11-10T09:20:32.931Z,5.05
2022-11-10T09:23:19.725Z,5.32
2022-11-10T09:26:07.640Z,4.75
2022-11-10T09:28:52.996Z,4.88
2022-11-10T09:31:38.011Z,6.32
2022-11-10T09:34:23.343Z,4.75
2022-11-10T09:37:09.260Z,5.65
2022-11-10T09:39:55.790Z,4.43
2022-11-10T09:42:43.478Z,7.17
2022-11-10T09:45:39.344Z,7.03
2022-11-10T09:48:38.960Z,5.63
2022-11-10T09:51:28.321Z,4.43
2022-11-10T09:54:39.140Z,6.13
2022-11-10T09:57:26.648Z,6.37
2022-11-10T10:00:17.997Z,5.07
2022-11-10T10:03:05.355Z,4.67
2022-11-10T10:05:57.863Z,5.23
2022-11-10T10:09:12.440Z,8.10
2022-11-10T10:12:08.087Z,4.83
2022-11-10T10:15:35.213Z,3.60
2022-11-10T10:18:25.637Z,3.97
2022-11-10T10:21:42.904Z,4.43
2022-11-10T10:24:30.225Z,3.08
2022-11-10T10:27:26.911Z,4.47
2022-11-10T10:30:15.107Z,4.80
2022-11-10T10:33:16.312Z,6.50
2022-11-10T10:36:14.403Z,4.45
2022-11-10T10:39:12.258Z,5.72
2022-11-10T10:41:58.563Z,5.40
2022-11-10T10:45:22.671Z,3.00
2022-11-10T10:48:25.093Z,4.05
2022-11-10T10:51:12.415Z,4.03
2022-11-10T10:53:57.888Z,4.85
2022-11-10T10:56:43.041Z,2.63
2022-11-10T10:59:28.609Z,4.82
2022-11-10T11:02:28.225Z,2.83
2022-11-10T11:05:17.647Z,5.47
2022-11-10T11:08:03.057Z,3.78
2022-11-10T11:10:48.478Z,4.13
2022-11-10T11:13:33.917Z,3.47
2022-11-10T11:16:19.553Z,6.15
2022-11-10T11:19:05.129Z,3.25
2022-11-10T11:22:09.809Z,4.80
2022-11-10T11:25:20.025Z,4.05
2022-11-10T11:28:38.780Z,2.45
2022-11-10T11:31:51.633Z,4.95
2022-11-10T11:34:47.331Z,4.30
2022-11-10T11:38:06.284Z,4.25
2022-11-10T11:40:57.104Z,4.22
2022-11-10T11:44:13.591Z,5.47
2022-11-10T11:47:48.735Z,3.45
2022-11-10T11:50:44.756Z,4.50
2022-11-10T11:53:50.963Z,4.63
2022-11-10T11:56:41.429Z,4.28
2022-11-10T11:59:48.066Z,3.15
2022-11-10T12:02:39.105Z,3.03
2022-11-10T12:05:45.916Z,4.47
2022-11-10T12:08:40.617Z,3.75
2022-11-10T12:11:48.450Z,3.72
2022-11-10T12:14:52.244Z,4.43
2022-11-10T12:17:58.165Z,2.55
2022-11-10T12:20:59.470Z,2.47
2022-11-10T12:24:15.459Z,6.80
2022-11-10T12:27:22.762Z,5.20
2022-11-10T12:30:14.000Z,4.93
2022-11-10T12:33:05.165Z,2.35
2022-11-10T12:35:53.730Z,2.30
2022-11-10T12:39:00.689Z,2.92
2022-11-10T12:41:51.265Z,3.58
2022-11-10T12:45:00.324Z,3.50
2022-11-10T12:47:47.131Z,3.20
2022-11-10T12:50:51.461Z,3.83
2022-11-10T12:53:41.865Z,3.17
2022-11-10T12:56:37.612Z,3.33
2022-11-10T12:59:30.566Z,5.07
2022-11-10T13:02:42.931Z,4.07
2022-11-10T13:05:41.882Z,3.95
2022-11-10T13:08:33.053Z,3.55
2022-11-10T13:11:18.039Z,3.80
2022-11-10T13:14:05.295Z,5.75
2022-11-10T13:16:54.030Z,2.60
2022-11-10T13:19:39.532Z,3.47
2022-11-10T13:22:40.658Z,3.65
2022-11-10T13:25:37.883Z,5.03
2022-11-10T13:28:56.642Z,4.72
2022-11-10T13:31:51.121Z,2.70
2022-11-10T13:34:38.535Z,3.08
2022-11-10T13:37:29.837Z,2.85
2022-11-10T13:40:24.372Z,4.38
2022-11-10T13:43:23.819Z,3.47
2022-11-10T13:46:09.158Z,2.92
2022-11-10T13:49:31.734Z,4.05
2022-11-10T13:52:40.780Z,2.92
2022-11-10T13:55:55.232Z,4.93
2022-11-10T13:58:43.333Z,2.85
2022-11-10T14:01:30.344Z,3.15
2022-11-10T14:04:42.328Z,4.28
2022-11-10T14:07:38.382Z,3.65
2022-11-10T14:10:51.851Z,3.78
2022-11-10T14:13:45.441Z,3.42
2022-11-10T14:16:32.544Z,5.30
2022-11-10T14:19:28.072Z,4.20
2022-11-10T14:22:34.499Z,5.13
2022-11-10T14:25:34.787Z,3.97
2022-11-10T14:28:32.621Z,3.35
2022-11-10T14:31:22.193Z,3.85
2022-11-10T14:34:15.421Z,3.30
2022-11-10T14:37:03.090Z,6.53
2022-11-10T14:39:51.401Z,3.73
2022-11-10T14:42:38.694Z,3.67
2022-11-10T14:45:26.117Z,3.60
2022-11-10T14:48:20.187Z,4.90
2022-11-10T14:51:14.337Z,4.90
2022-11-10T14:53:59.776Z,2.60
2022-11-10T14:56:44.954Z,3.17
2022-11-10T14:59:31.088Z,3.77
2022-11-10T15:02:18.579Z,3.70
2022-11-10T15:05:03.993Z,3.43
2022-11-10T15:07:53.752Z,3.30
2022-11-10T15:10:39.370Z,2.77
2022-11-10T15:13:28.087Z,2.60
2022-11-10T15:16:29.613Z,2.60
2022-11-10T15:19:21.358Z,2.93
2022-11-10T15:22:33.902Z,3.23
2022-11-10T15:25:22.066Z,3.37
2022-11-10T15:28:13.334Z,3.47
2022-11-10T15:31:02.969Z,6.23
2022-11-10T15:33:51.146Z,4.00
2022-11-10T15:36:40.964Z,4.07
2022-11-10T15:39:27.450Z,3.27
2022-11-10T15:42:33.065Z,5.10
2022-11-10T15:45:18.733Z,4.70
2022-11-10T15:48:05.320Z,6.23
2022-11-10T15:50:54.571Z,3.97
2022-11-10T15:53:45.606Z,3.37
2022-11-10T15:56:30.819Z,3.90
2022-11-10T15:59:16.307Z,4.23
2022-11-10T16:02:01.721Z,5.30
2022-11-10T16:04:48.888Z,3.43
2022-11-10T16:07:33.844Z,4.13
2022-11-10T16:10:19.361Z,5.07
2022-11-10T16:13:04.844Z,3.90
2022-11-10T16:15:50.755Z,6.50
2022-11-10T16:18:39.976Z,4.20
2022-11-10T16:21:28.550Z,4.17
2022-11-10T16:24:14.163Z,3.40
2022-11-10T16:26:59.704Z,3.00
2022-11-10T16:29:45.197Z,4.83
2022-11-10T16:32:30.581Z,4.20
2022-11-10T16:35:16.000Z,4.63
2022-11-10T16:38:01.729Z,3.50
2022-11-10T16:40:53.142Z,4.07
2022-11-10T16:43:38.629Z,4.27
2022-11-10T16:46:26.583Z,5.67
2022-11-10T16:49:26.853Z,8.90
2022-11-10T16:52:15.248Z,4.67
2022-11-10T16:55:00.230Z,4.73
2022-11-10T16:57:45.835Z,6.00
2022-11-10T17:00:32.303Z,4.23
2022-11-10T17:03:23.944Z,5.07
2022-11-10T17:06:13.522Z,4.87
2022-11-10T17:09:06.011Z,4.03
2022-11-10T17:11:51.286Z,5.57
2022-11-10T17:14:36.819Z,4.70
2022-11-10T17:17:23.117Z,5.43
2022-11-10T17:20:11.331Z,6.57
2022-11-10T17:22:56.841Z,7.63
2022-11-10T17:25:43.163Z,10.43
2022-11-10T17:28:28.468Z,8.77
2022-11-10T17:31:15.744Z,11.57
2022-11-10T17:34:00.831Z,8.60
2022-11-10T17:36:46.247Z,12.80
2022-11-10T17:39:32.813Z,9.67
2022-11-10T17:42:18.225Z,10.67
2022-11-10T17:45:03.792Z,11.10
2022-11-10T17:47:49.776Z,8.73
2022-11-10T17:50:36.816Z,11.03
2022-11-10T17:53:28.330Z,11.13
2022-11-10T17:56:14.047Z,10.60
2022-11-10T17:58:59.546Z,12.00
2022-11-10T18:01:44.799Z,9.10
2022-11-10T18:04:30.569Z,8.97
2022-11-10T18:07:16.041Z,9.27
2022-11-10T18:10:01.293Z,11.97
2022-11-10T18:12:46.641Z,9.87
2022-11-10T18:15:32.049Z,7.77
2022-11-10T18:18:18.045Z,8.90
2022-11-10T18:21:04.960Z,12.80
2022-11-10T18:23:50.447Z,10.87
2022-11-10T18:26:35.936Z,8.53
2022-11-10T18:29:21.497Z,10.60
2022-11-10T18:32:06.937Z,8.30
2022-11-10T18:34:52.382Z,5.87
2022-11-10T18:37:39.207Z,6.47
2022-11-10T18:40:24.835Z,8.97
2022-11-10T18:43:10.055Z,6.70
2022-11-10T18:45:55.363Z,9.77
2022-11-10T18:48:41.176Z,8.97
2022-11-10T18:51:26.442Z,6.47
2022-11-10T18:54:13.025Z,4.83
2022-11-10T18:56:58.527Z,6.77
2022-11-10T18:59:43.960Z,6.47
2022-11-10T19:02:29.331Z,5.87
2022-11-10T19:05:14.783Z,6.47
2022-11-10T19:08:00.120Z,4.47
2022-11-10T19:10:45.481Z,5.73
2022-11-10T19:13:30.916Z,6.27
2022-11-10T19:16:18.356Z,6.60
2022-11-10T19:19:03.603Z,7.50
2022-11-10T19:21:48.955Z,7.30
2022-11-10T19:24:53.641Z,7.23
2022-11-10T19:27:40.191Z,6.77
2022-11-10T19:30:25.827Z,9.33
2022-11-10T19:33:11.997Z,7.47
2022-11-10T19:36:08.897Z,10.67
2022-11-10T19:38:55.360Z,7.23
2022-11-10T19:41:40.625Z,8.60
2022-11-10T19:44:25.999Z,7.90
2022-11-10T19:47:11.677Z,8.90
2022-11-10T19:49:56.831Z,9.47
2022-11-10T19:52:42.049Z,5.10
2022-11-10T19:55:27.358Z,8.60
2022-11-10T19:58:12.749Z,7.73
2022-11-10T20:01:00.098Z,5.93
2022-11-10T20:03:46.027Z,7.27
2022-11-10T20:06:31.110Z,5.37
2022-11-10T20:09:16.444Z,5.50
2022-11-10T20:12:01.741Z,5.07
2022-11-10T20:14:47.245Z,5.60
2022-11-10T20:17:32.348Z,5.27
2022-11-10T20:20:18.115Z,6.10
2022-11-10T20:23:05.676Z,5.33
2022-11-10T20:26:05.599Z,4.60
2022-11-10T20:28:51.139Z,4.50
2022-11-10T20:31:38.535Z,4.37
2022-11-10T20:34:23.984Z,6.23
2022-11-10T20:37:09.275Z,6.33
2022-11-10T20:39:54.595Z,6.03
2022-11-10T20:42:42.824Z,7.63
2022-11-10T20:45:28.294Z,10.50
2022-11-10T20:48:13.848Z,9.63
2022-11-10T20:50:59.714Z,8.47
2022-11-10T20:53:45.860Z,6.00
2022-11-10T20:56:31.487Z,7.03
2022-11-10T20:59:16.933Z,8.77
2022-11-10T21:02:02.436Z,6.63
2022-11-10T21:04:48.128Z,5.30
2022-11-10T21:07:33.358Z,5.60
2022-11-10T21:10:18.859Z,6.20
2022-11-10T21:13:04.218Z,8.73
2022-11-10T21:15:54.916Z,7.67
2022-11-10T21:18:40.194Z,4.83
2022-11-10T21:21:34.024Z,5.33
2022-11-10T21:24:20.268Z,6.90
2022-11-10T21:27:05.961Z,7.63
2022-11-10T21:29:51.044Z,7.00
2022-11-10T21:32:36.443Z,7.83
2022-11-10T21:35:22.313Z,8.73
2022-11-10T21:38:07.491Z,7.53
2022-11-10T21:40:53.047Z,7.63
2022-11-10T21:43:41.239Z,7.13
2022-11-10T21:46:26.292Z,7.17
2022-11-10T21:49:11.953Z,7.37
2022-11-10T21:51:57.020Z,8.77
2022-11-10T21:54:42.427Z,9.00
2022-11-10T21:57:27.896Z,6.27
2022-11-10T22:00:14.108Z,6.13
2022-11-10T22:03:00.211Z,6.83
2022-11-10T22:05:45.436Z,6.17
2022-11-10T22:08:30.905Z,8.00
2022-11-10T22:11:37.528Z,6.60
2022-11-10T22:14:41.492Z,5.63
2022-11-10T22:17:45.460Z,5.07
2022-11-10T22:20:30.807Z,5.27
2022-11-10T22:23:16.346Z,6.73
2022-11-10T22:26:01.716Z,5.43
2022-11-10T22:28:47.317Z,6.40
2022-11-10T22:31:33.124Z,4.53
2022-11-10T22:34:18.740Z,6.33
2022-11-10T22:37:04.028Z,6.93
2022-11-10T22:40:07.798Z,6.60
2022-11-10T22:43:11.667Z,4.77
2022-11-10T22:45:56.947Z,6.17
2022-11-10T22:48:42.415Z,7.13
2022-11-10T22:51:29.551Z,4.80
2022-11-10T22:54:19.938Z,5.97
2022-11-10T22:57:05.313Z,7.63
2022-11-10T22:59:50.648Z,6.90
2022-11-10T23:02:37.231Z,8.23
2022-11-10T23:05:23.124Z,6.47
2022-11-10T23:08:08.360Z,7.97
2022-11-10T23:11:08.503Z,9.03
2022-11-10T23:13:54.016Z,8.70
2022-11-10T23:16:39.321Z,8.87
2022-11-10T23:19:24.498Z,8.43
2022-11-10T23:22:09.817Z,9.03
2022-11-10T23:24:57.286Z,8.37
2022-11-10T23:27:42.450Z,8.73
2022-11-10T23:30:27.811Z,6.77
2022-11-10T23:33:13.081Z,7.83
2022-11-10T23:35:58.380Z,6.43
2022-11-10T23:38:44.592Z,11.67
2022-11-10T23:41:30.600Z,4.77
2022-11-10T23:44:16.211Z,6.10
2022-11-10T23:47:01.764Z,6.20
2022-11-10T23:49:47.454Z,6.50
2022-11-10T23:52:32.617Z,7.27
2022-11-10T23:55:18.119Z,6.27
2022-11-10T23:58:04.172Z,6.03
